Stratford, CT

6:38 PM EDT on July 23, 2016 (GMT -0400)
Sikorsky Memorial | | Change Station

Elev 16 ft 41.16 °N, 73.13 °W | Updated 46 minutes ago

Clear
Clear
94 °F
Feels Like 92 °F
N
10
Wind Variable Wind from WNW
Gusts 20 mph

Today
High -- | Low -- °F
--% Chance of Precip.
Yesterday
High -- | Low -- °F
Precip. -- in
Pressure 29.76 in
Visibility 10.0 miles
Clouds Clear
Heat Index 92 °F
Dew Point 55 °F
Humidity 27%
Rainfall 0.00 in
Snow Depth Not available.
5:40 AM 8:17 PM
Waning Gibbous, 82% visible
METAR KBDR 232152Z 29009G17KT 10SM CLR 34/13 A2976 RMK AO2 SLP078 T03440128
Pressure 29.76 in
Visibility 10.0 miles
Clouds Clear
Heat Index 92 °F
Dew Point 55 °F
Humidity 27%
Rainfall 0.00 in
Snow Depth Not available.
5:40 AM 8:17 PM
Waning Gibbous, 82% visible
METAR KBDR 232152Z 29009G17KT 10SM CLR 34/13 A2976 RMK AO2 SLP078 T03440128

10-Day Weather Forecast

Almanac

Astronomy

Jul. 23, 2016 Rise Set
Actual Time
Civil Twilight
Nautical Twilight
Astronomical Twilight
Moon
Length of Visible Light
Length of Day
Tomorrow will be .
, % of the Moon is Illuminated

Today's Extremes

State Highs State Lows

Community

WunderPhotos

Upload Photos

1,926,946 photos uploaded!

WunderBlog® & News

Nearby

Air Quality

  Air Quality AQ Index Pollutant
Not available.

Snow Depth

Station Depth Elevation

Earthquake Activity

City Distance Mag. Time & Date
Minimum magnitude displayed is 2.5.

Coastal Water Temperatures

Place Temperature

Stations

Nearby Weather Stations

Station Location Temp. Windchill Dew Point Humidity Wind Precip. Elev Updated Type
                   

Watches & Warnings

There are currently no watches in effect.